Карточка аэропорта UAKK

Внимание!
Информация на этой странице в стадии наполнения.
Если вы не увидели какой-то информации, или заметили неточность - пожалуйста сообщите нам!
Спасибо!
Команда RU-STAFF
Название аэропортаКараганда
Название аэропорта (англ.)Karaganda
Превышение1768 ft. (538.9 m.)
Координаты49°40.302', 73°20.118'
Высота перехода10000ft
Эшелон переходаFL120, QNH<733:FL130
Коды ответчика0630-0637, 7220-7227
Зона ОрВДАстана РПИ (UACN)
Данные METARUAKK 140300Z VRB01MPS 9000 SCT011 BKN046CB 17/16 Q1013 NOSIG RMK QFE713/0950
Проноз погоды (TAF)UAKK 140200Z 1402/1424 36003MPS 5000 -SHRA BKN030CB BKN080 TX23/1410Z TN14/1418Z TEMPO 1402/1405 04005MPS 3100 BR SCT011 BKN020CB FM140500 04005MPS 9999 BKN030 BKN100 TEMPO 1405/1415 36008MPS 3100 -TSRA BR BKN008 BKN020CB TEMPO 1415/1424 VRB02MPS 2000 BR BKN011
NOTAMshow/hide NOTAM
AWOS   TABLE

Информация о ВПП

ВПП Длина ВПП (м.) Покрытие Курс ВПП Частота ILS
233601Железобетон230111.7
053601Железобетон50109.9

Диспетчерские позиции




Спутниковое изображение